Time;durP1;ratioP1;P1;durP2;ratioP2;P2;SDS_P1;SDS_P2;PMS_P1;PMS_P2;Temp;Humidity;BMP_temperature;BMP_pressure;BME280_temperature;BME280_humidity;BME280_pressure;Samples;Min_cycle;Max_cycle;Signal;HPM_P1;HPM_P2
2021/04/03 00:00:04;;;;;;;22.13;5.57;;;6.20;99.90;;;;;;5045749;28;20583;-72
2021/04/03 00:02:31;;;;;;;25.90;6.38;;;6.20;99.90;;;;;;5041668;28;20194;-71
2021/04/03 00:04:57;;;;;;;17.27;5.43;;;6.20;99.90;;;;;;5041569;28;20552;-72
2021/04/03 00:07:24;;;;;;;28.17;6.18;;;6.10;99.90;;;;;;5055173;28;20214;-73
2021/04/03 00:09:52;;;;;;;21.45;6.75;;;6.10;99.90;;;;;;5041513;28;20200;-71
2021/04/03 00:12:18;;;;;;;21.90;6.28;;;6.10;99.90;;;;;;5042424;28;20224;-72
2021/04/03 00:14:45;;;;;;;27.95;8.40;;;6.10;99.90;;;;;;5045648;28;20200;-76
2021/04/03 00:17:12;;;;;;;24.17;7.40;;;6.10;99.90;;;;;;5042226;28;20244;-73
2021/04/03 00:19:39;;;;;;;20.98;6.20;;;6.10;99.90;;;;;;5041398;28;20731;-72
2021/04/03 00:22:06;;;;;;;21.77;7.00;;;6.00;99.90;;;;;;5039443;28;20200;-72
2021/04/03 00:24:33;;;;;;;24.23;6.60;;;6.00;99.90;;;;;;5049296;28;20722;-73
2021/04/03 00:27:01;;;;;;;15.55;6.32;;;5.90;99.90;;;;;;5034836;28;20301;-71
2021/04/03 00:29:27;;;;;;;26.17;8.80;;;5.90;99.90;;;;;;5043909;28;20578;-73
2021/04/03 00:31:54;;;;;;;36.53;7.70;;;5.80;99.90;;;;;;5050653;28;20207;-72
2021/04/03 00:34:21;;;;;;;29.35;8.50;;;5.80;99.90;;;;;;5041048;28;20245;-72
2021/04/03 00:36:47;;;;;;;24.67;6.72;;;5.80;99.90;;;;;;5049389;28;20658;-73
2021/04/03 00:39:14;;;;;;;34.20;7.47;;;5.80;99.90;;;;;;5050701;28;20204;-72
2021/04/03 00:41:40;;;;;;;20.33;7.95;;;5.80;99.90;;;;;;5037889;28;20238;-73
2021/04/03 00:44:12;;;;;;;25.95;8.73;;;5.70;99.90;;;;;;5034546;28;20207;-72
2021/04/03 00:46:38;;;;;;;19.45;6.13;;;5.70;99.90;;;;;;5042840;28;20224;-72
2021/04/03 00:49:06;;;;;;;27.98;6.70;;;5.70;99.90;;;;;;5043322;28;20207;-73
2021/04/03 00:51:34;;;;;;;24.50;8.30;;;5.70;99.90;;;;;;5040902;28;20207;-73
2021/04/03 00:54:01;;;;;;;29.17;7.13;;;5.60;99.90;;;;;;5036409;28;20215;-73
2021/04/03 00:56:27;;;;;;;31.33;8.00;;;5.60;99.90;;;;;;5034427;28;20231;-73
2021/04/03 00:58:54;;;;;;;24.17;7.60;;;5.60;99.90;;;;;;5036386;28;20196;-73
2021/04/03 01:01:22;;;;;;;19.45;5.13;;;5.60;99.90;;;;;;5036457;28;20219;-72
2021/04/03 01:03:49;;;;;;;24.85;6.60;;;5.60;99.90;;;;;;5045136;28;20204;-73
2021/04/03 01:06:15;;;;;;;28.05;8.20;;;5.60;99.90;;;;;;5049102;28;20223;-74
2021/04/03 01:08:43;;;;;;;27.55;6.68;;;5.50;99.90;;;;;;5054158;28;20226;-74
2021/04/03 01:11:10;;;;;;;17.85;6.95;;;5.60;99.90;;;;;;5054463;28;20609;-74
2021/04/03 01:13:57;;;;;;;27.02;8.35;;;5.50;99.90;;;;;;5045451;28;20224;-72
2021/04/03 01:16:32;;;;;;;16.05;6.95;;;5.50;99.90;;;;;;5050125;28;20277;-73
2021/04/03 01:19:14;;;;;;;28.65;9.50;;;5.50;99.90;;;;;;5037368;28;20593;-74
2021/04/03 01:22:03;;;;;;;31.92;8.70;;;5.50;99.90;;;;;;5032479;28;20226;-73
2021/04/03 01:24:41;;;;;;;32.13;7.38;;;5.50;99.90;;;;;;5032703;28;20277;-74
2021/04/03 01:27:18;;;;;;;22.48;8.65;;;5.40;99.90;;;;;;5034561;28;20220;-75
2021/04/03 01:29:51;;;;;;;28.63;7.97;;;5.40;99.90;;;;;;5044131;28;20535;-73
2021/04/03 01:32:25;;;;;;;30.88;9.70;;;5.40;99.90;;;;;;5037397;28;20215;-72
2021/04/03 01:34:53;;;;;;;29.73;7.95;;;5.40;99.90;;;;;;5045316;28;20639;-72
2021/04/03 01:37:23;;;;;;;35.67;9.82;;;5.40;99.90;;;;;;5033879;28;20678;-74
2021/04/03 01:39:53;;;;;;;20.20;8.05;;;5.40;99.90;;;;;;5047305;28;20546;-72
2021/04/03 01:42:22;;;;;;;34.45;10.60;;;5.40;99.90;;;;;;5046738;28;20208;-72
2021/04/03 01:44:52;;;;;;;38.08;11.68;;;5.40;99.90;;;;;;5034131;28;20262;-71
2021/04/03 01:47:21;;;;;;;46.08;11.13;;;5.40;99.90;;;;;;5036529;28;20665;-73
2021/04/03 01:49:51;;;;;;;36.47;9.55;;;5.30;99.90;;;;;;5034604;28;20212;-72
2021/04/03 01:52:21;;;;;;;35.60;11.68;;;5.30;99.90;;;;;;5035665;28;20220;-72
2021/04/03 01:54:48;;;;;;;34.75;10.10;;;5.30;99.90;;;;;;5034982;28;20293;-73
2021/04/03 01:57:15;;;;;;;32.42;11.63;;;5.30;99.90;;;;;;5069422;22;20355;-67
2021/04/03 01:59:44;;;;;;;38.25;12.65;;;5.40;99.90;;;;;;5040533;28;20204;-67
2021/04/03 02:02:12;;;;;;;33.58;12.30;;;5.40;99.90;;;;;;5052322;28;20205;-67
2021/04/03 02:04:41;;;;;;;48.40;12.55;;;5.30;99.90;;;;;;5051852;28;20200;-68
2021/04/03 02:07:10;;;;;;;26.02;9.43;;;5.30;99.90;;;;;;5062877;28;20219;-67
2021/04/03 02:09:37;;;;;;;38.65;12.45;;;5.30;99.90;;;;;;5053365;28;20199;-68
2021/04/03 02:12:05;;;;;;;42.60;12.15;;;5.30;99.90;;;;;;5050974;28;20237;-66
2021/04/03 02:14:33;;;;;;;50.92;12.25;;;5.40;99.90;;;;;;5053559;28;20199;-67
2021/04/03 02:17:00;;;;;;;42.45;10.65;;;5.40;99.90;;;;;;5047762;28;20315;-65
2021/04/03 02:19:29;;;;;;;48.08;14.52;;;5.40;99.90;;;;;;5048553;28;20200;-65
2021/04/03 02:21:56;;;;;;;40.40;10.23;;;5.40;99.90;;;;;;5049103;28;20192;-66
2021/04/03 02:24:23;;;;;;;42.83;10.27;;;5.40;99.90;;;;;;5051468;28;20199;-66
2021/04/03 02:26:49;;;;;;;86.68;36.38;;;5.40;99.90;;;;;;5051303;28;20223;-67
2021/04/03 02:29:16;;;;;;;34.70;9.43;;;5.40;99.90;;;;;;5061098;28;20222;-67
2021/04/03 02:31:43;;;;;;;39.40;10.05;;;5.40;99.90;;;;;;5057802;28;20590;-67
2021/04/03 02:34:10;;;;;;;26.63;8.77;;;5.40;99.90;;;;;;5043907;28;20208;-66
2021/04/03 02:36:37;;;;;;;34.97;10.82;;;5.40;99.90;;;;;;5055832;28;20276;-66
2021/04/03 02:39:04;;;;;;;40.38;10.30;;;5.40;99.90;;;;;;5050142;28;20237;-68
2021/04/03 02:42:00;;;;;;;36.67;11.93;;;5.40;99.90;;;;;;5050669;28;20212;-67
2021/04/03 02:44:30;;;;;;;41.85;10.57;;;5.40;99.90;;;;;;5050745;28;20211;-66
2021/04/03 02:47:03;;;;;;;32.78;9.18;;;5.40;99.90;;;;;;5064544;28;20218;-67
2021/04/03 02:49:35;;;;;;;40.63;10.02;;;5.30;99.90;;;;;;5050784;28;20203;-66
2021/04/03 02:52:06;;;;;;;40.42;10.38;;;5.40;99.90;;;;;;5048572;28;20711;-66
2021/04/03 02:54:34;;;;;;;44.20;11.80;;;5.40;99.90;;;;;;5051021;28;20207;-66
2021/04/03 02:57:01;;;;;;;40.17;11.05;;;5.30;99.90;;;;;;5059843;28;20260;-67
2021/04/03 02:59:32;;;;;;;39.90;12.07;;;5.30;99.90;;;;;;5052121;28;20209;-67
2021/04/03 03:02:00;;;;;;;41.20;10.43;;;5.30;99.90;;;;;;5051355;28;20227;-66
2021/04/03 03:04:28;;;;;;;42.78;9.85;;;5.30;99.90;;;;;;5051052;28;20200;-66
2021/04/03 03:06:58;;;;;;;37.15;11.55;;;5.30;99.90;;;;;;5060668;28;20216;-64
2021/04/03 03:09:27;;;;;;;55.10;11.90;;;5.30;99.90;;;;;;5047981;28;20199;-67
2021/04/03 03:11:56;;;;;;;30.13;9.15;;;5.30;99.90;;;;;;5049876;28;20306;-65
2021/04/03 03:14:24;;;;;;;36.55;11.80;;;5.30;99.90;;;;;;5064953;28;20206;-66
2021/04/03 03:16:53;;;;;;;36.85;10.05;;;5.40;99.90;;;;;;5051518;28;20220;-66
2021/04/03 03:19:20;;;;;;;56.30;10.77;;;5.30;99.90;;;;;;5057702;28;20199;-66
2021/04/03 03:21:47;;;;;;;32.38;12.52;;;5.20;99.90;;;;;;5067390;28;20257;-66
2021/04/03 03:24:15;;;;;;;61.72;13.18;;;5.30;99.90;;;;;;5055316;28;20199;-66
2021/04/03 03:26:42;;;;;;;35.55;10.70;;;5.20;99.90;;;;;;5056540;28;20241;-66
2021/04/03 03:29:11;;;;;;;43.25;11.75;;;5.20;99.90;;;;;;5051100;28;20210;-66
2021/04/03 03:31:39;;;;;;;50.28;11.25;;;5.20;99.90;;;;;;5054130;28;20200;-65
2021/04/03 03:34:06;;;;;;;48.88;11.30;;;5.10;99.90;;;;;;5051512;28;20332;-65
2021/04/03 03:36:35;;;;;;;41.72;11.20;;;5.10;99.90;;;;;;5050170;28;20219;-65
2021/04/03 03:39:04;;;;;;;40.72;11.82;;;5.10;99.90;;;;;;5053579;28;20255;-65
2021/04/03 03:41:31;;;;;;;33.83;11.15;;;5.10;99.90;;;;;;5054525;28;20258;-66
2021/04/03 03:43:59;;;;;;;34.15;12.40;;;5.10;99.90;;;;;;5054107;28;20579;-67
2021/04/03 03:46:25;;;;;;;36.45;11.75;;;5.10;99.90;;;;;;5054632;28;20223;-66
2021/04/03 03:48:52;;;;;;;36.70;9.93;;;5.00;99.90;;;;;;5051243;28;20199;-65
2021/04/03 03:51:18;;;;;;;49.45;14.38;;;5.10;99.90;;;;;;5052729;28;20212;-65
2021/04/03 03:53:45;;;;;;;39.78;11.40;;;5.10;99.90;;;;;;5053222;28;20226;-67
2021/04/03 03:56:11;;;;;;;35.53;11.88;;;5.10;99.90;;;;;;5055489;28;20236;-66
2021/04/03 03:58:38;;;;;;;33.50;11.80;;;5.10;99.90;;;;;;5064571;28;20210;-68
2021/04/03 04:01:05;;;;;;;40.53;12.52;;;5.10;99.90;;;;;;5050802;28;20206;-66
2021/04/03 04:03:32;;;;;;;44.75;16.05;;;5.10;99.90;;;;;;5054115;28;20208;-65
2021/04/03 04:05:58;;;;;;;41.45;12.43;;;5.10;99.90;;;;;;5054734;28;20695;-65
2021/04/03 04:08:25;;;;;;;33.40;13.60;;;5.10;99.90;;;;;;5054529;28;20199;-66
2021/04/03 04:10:52;;;;;;;39.42;13.38;;;5.10;99.90;;;;;;5054195;28;20207;-66
2021/04/03 04:13:19;;;;;;;45.17;12.32;;;5.10;99.90;;;;;;5056573;28;20600;-65
2021/04/03 04:15:45;;;;;;;38.20;12.70;;;5.20;99.90;;;;;;5047934;28;20223;-65
2021/04/03 04:18:13;;;;;;;37.88;14.30;;;5.30;99.90;;;;;;5052657;28;20211;-65
2021/04/03 04:20:40;;;;;;;40.97;12.98;;;5.20;99.90;;;;;;5054156;28;20200;-65
2021/04/03 04:23:06;;;;;;;36.58;10.90;;;5.20;99.90;;;;;;5053119;28;20196;-66
2021/04/03 04:25:33;;;;;;;62.13;14.95;;;5.20;99.90;;;;;;5053268;28;20227;-66
2021/04/03 04:27:59;;;;;;;48.05;16.65;;;5.30;99.90;;;;;;5052426;28;20204;-65
2021/04/03 04:30:27;;;;;;;43.22;14.45;;;5.30;99.90;;;;;;5057992;28;20203;-65
2021/04/03 04:32:54;;;;;;;48.28;13.57;;;5.30;99.90;;;;;;5053721;28;20223;-65
2021/04/03 04:35:21;;;;;;;35.05;12.55;;;5.30;99.90;;;;;;5052166;28;20200;-67
2021/04/03 04:37:48;;;;;;;51.05;14.82;;;5.30;99.90;;;;;;5051133;28;20686;-67
2021/04/03 04:40:15;;;;;;;44.35;13.73;;;5.30;99.90;;;;;;5052868;28;20227;-64
2021/04/03 04:42:43;;;;;;;34.67;12.20;;;5.30;99.90;;;;;;5053745;28;20245;-67
2021/04/03 04:45:11;;;;;;;31.35;14.50;;;5.30;99.90;;;;;;5051711;28;20553;-66
2021/04/03 04:47:38;;;;;;;38.38;14.65;;;5.30;99.90;;;;;;5050982;28;20200;-65
2021/04/03 04:50:06;;;;;;;69.53;15.90;;;5.30;99.90;;;;;;5053201;28;20227;-65
2021/04/03 04:52:34;;;;;;;46.00;15.60;;;5.30;99.90;;;;;;5047290;28;20584;-66
2021/04/03 04:55:01;;;;;;;35.05;15.02;;;5.30;99.90;;;;;;5051260;28;20688;-65
2021/04/03 04:57:27;;;;;;;40.13;15.02;;;5.30;99.90;;;;;;5055282;28;20723;-67
2021/04/03 04:59:55;;;;;;;61.63;14.98;;;5.30;99.90;;;;;;5056551;28;20218;-65
2021/04/03 05:02:22;;;;;;;37.95;15.35;;;5.30;99.90;;;;;;5052190;28;20235;-66
2021/04/03 05:04:48;;;;;;;30.45;12.45;;;5.30;99.90;;;;;;5052469;28;20231;-66
2021/04/03 05:07:15;;;;;;;42.60;15.23;;;5.40;99.90;;;;;;5051453;28;20289;-65
2021/04/03 05:09:43;;;;;;;39.03;13.43;;;5.50;99.90;;;;;;5052198;28;20206;-66
2021/04/03 05:12:10;;;;;;;37.72;13.88;;;5.50;99.90;;;;;;5052073;28;20223;-65
2021/04/03 05:14:36;;;;;;;33.30;12.05;;;5.50;99.90;;;;;;5052331;28;20548;-67
2021/04/03 05:17:03;;;;;;;35.15;12.18;;;5.50;99.90;;;;;;5052225;28;20226;-66
2021/04/03 05:19:30;;;;;;;39.40;13.68;;;5.60;99.90;;;;;;5052616;28;20581;-66
2021/04/03 05:21:56;;;;;;;46.55;11.70;;;5.60;99.90;;;;;;5045976;28;20204;-67
2021/04/03 05:24:23;;;;;;;42.78;14.32;;;5.60;99.90;;;;;;5048910;28;20196;-67
2021/04/03 05:26:50;;;;;;;50.55;13.75;;;5.60;99.90;;;;;;5045392;28;20223;-65
2021/04/03 05:29:17;;;;;;;51.33;15.20;;;5.70;99.90;;;;;;5055564;28;20210;-66
2021/04/03 05:31:44;;;;;;;42.63;13.60;;;5.70;99.90;;;;;;5044525;28;20261;-67
2021/04/03 05:34:10;;;;;;;49.13;12.90;;;5.70;99.90;;;;;;5049917;28;20361;-65
2021/04/03 05:36:36;;;;;;;42.03;14.52;;;5.80;99.90;;;;;;5055253;28;20264;-65
2021/04/03 05:39:03;;;;;;;41.92;14.35;;;5.80;99.90;;;;;;5051327;28;20276;-67
2021/04/03 05:41:30;;;;;;;40.85;14.50;;;5.90;99.90;;;;;;5051663;28;20660;-64
2021/04/03 05:43:58;;;;;;;52.30;14.27;;;5.90;99.90;;;;;;5051661;28;20203;-67
2021/04/03 05:46:25;;;;;;;40.60;13.35;;;6.00;99.90;;;;;;5046897;28;20223;-66
2021/04/03 05:48:52;;;;;;;37.35;14.82;;;6.10;99.90;;;;;;5050607;28;20199;-66
2021/04/03 05:51:19;;;;;;;35.15;14.73;;;6.20;99.90;;;;;;5048572;28;20199;-66
2021/04/03 05:53:46;;;;;;;44.65;16.20;;;6.40;99.90;;;;;;5045556;28;20223;-66
2021/04/03 05:56:14;;;;;;;64.20;20.90;;;6.60;99.90;;;;;;5054065;28;20282;-66
2021/04/03 05:58:41;;;;;;;35.55;14.63;;;6.80;99.90;;;;;;5062614;28;20596;-68
2021/04/03 06:01:09;;;;;;;23.08;11.60;;;7.30;99.90;;;;;;5041530;28;20211;-67
2021/04/03 06:03:35;;;;;;;27.70;10.90;;;8.10;99.90;;;;;;5049906;28;20198;-67
2021/04/03 06:06:03;;;;;;;26.33;12.55;;;9.20;99.90;;;;;;5061323;28;20223;-67
2021/04/03 06:08:30;;;;;;;23.65;10.05;;;10.30;99.90;;;;;;5045614;28;20207;-66
2021/04/03 06:11:14;;;;;;;30.25;11.57;;;11.30;99.90;;;;;;5052821;28;20228;-65
2021/04/03 06:13:42;;;;;;;25.95;10.52;;;12.30;99.90;;;;;;5043231;28;20221;-66
2021/04/03 06:16:28;;;;;;;32.80;12.85;;;12.90;99.90;;;;;;5054232;28;20219;-67
2021/04/03 06:19:18;;;;;;;21.42;9.20;;;13.70;99.90;;;;;;5052520;28;20623;-67
2021/04/03 06:21:47;;;;;;;30.70;10.00;;;14.40;98.00;;;;;;5046494;28;20287;-67
2021/04/03 06:24:23;;;;;;;19.23;9.80;;;15.10;97.10;;;;;;5050233;28;20219;-68
2021/04/03 06:27:02;;;;;;;21.42;9.57;;;15.80;94.90;;;;;;5053651;28;20245;-67
2021/04/03 06:33:16;;;;;;;17.48;10.48;;;16.90;91.70;;;;;;5069821;28;20216;-82
2021/04/03 06:35:42;;;;;;;25.25;10.05;;;17.20;90.50;;;;;;5053484;28;20284;-81
2021/04/03 06:38:20;;;;;;;25.45;10.55;;;17.40;89.80;;;;;;5062461;28;20206;-81
2021/04/03 06:40:47;;;;;;;23.35;10.82;;;17.10;89.50;;;;;;5058628;28;20197;-81
2021/04/03 06:43:17;;;;;;;23.63;10.82;;;16.80;88.70;;;;;;5069468;28;20259;-81
2021/04/03 06:45:45;;;;;;;23.23;10.02;;;16.30;90.40;;;;;;5050516;28;20228;-82
2021/04/03 06:48:13;;;;;;;20.23;10.63;;;16.00;90.70;;;;;;5073525;28;20889;-82
2021/04/03 06:50:43;;;;;;;20.63;10.18;;;15.80;90.90;;;;;;5072572;28;20205;-81
2021/04/03 06:53:11;;;;;;;21.65;10.77;;;15.70;91.20;;;;;;5080979;28;20250;-83
2021/04/03 06:55:39;;;;;;;22.45;11.23;;;15.70;91.00;;;;;;5075227;28;20235;-83
2021/04/03 06:58:07;;;;;;;23.55;10.07;;;15.90;90.90;;;;;;5067728;28;20211;-82
2021/04/03 07:00:35;;;;;;;20.55;10.63;;;16.20;90.60;;;;;;5069444;28;20480;-81
2021/04/03 07:03:03;;;;;;;18.48;9.48;;;16.80;90.00;;;;;;5060725;28;20416;-80
2021/04/03 07:05:32;;;;;;;16.23;9.57;;;17.20;87.90;;;;;;5061132;28;20211;-82
2021/04/03 07:08:01;;;;;;;18.90;10.13;;;17.70;87.80;;;;;;5076240;28;20452;-80
2021/04/03 07:10:28;;;;;;;15.83;8.53;;;17.80;86.40;;;;;;5065128;28;20446;-79
2021/04/03 07:12:56;;;;;;;17.80;9.27;;;18.00;89.30;;;;;;5059602;28;20486;-81
2021/04/03 07:15:23;;;;;;;18.90;7.50;;;18.40;83.80;;;;;;5073594;28;20445;-82
2021/04/03 07:17:51;;;;;;;19.83;8.00;;;18.60;85.50;;;;;;5082176;28;20457;-79
2021/04/03 07:20:19;;;;;;;19.87;7.23;;;19.00;83.80;;;;;;5063810;28;20454;-81
2021/04/03 07:22:55;;;;;;;15.07;6.97;;;19.30;82.50;;;;;;5083988;28;20454;-86
2021/04/03 07:25:26;;;;;;;14.27;7.23;;;19.30;80.60;;;;;;5072929;28;20477;-86
2021/04/03 07:27:53;;;;;;;15.30;7.27;;;19.10;78.80;;;;;;5068370;28;20505;-88
2021/04/03 07:30:39;;;;;;;12.03;6.50;;;19.50;79.90;;;;;;5087232;28;20435;-86
2021/04/03 07:33:07;;;;;;;12.93;5.40;;;19.80;78.90;;;;;;5075536;28;20450;-87
2021/04/03 07:35:37;;;;;;;12.63;6.17;;;20.10;77.10;;;;;;5071807;28;20567;-85
2021/04/03 07:38:09;;;;;;;12.83;6.00;;;20.30;74.60;;;;;;5078244;28;20924;-86
2021/04/03 07:40:45;;;;;;;13.80;4.97;;;20.40;73.80;;;;;;5065990;28;20849;-87
2021/04/03 07:43:41;;;;;;;13.07;5.57;;;20.40;73.50;;;;;;5060465;28;20489;-82
2021/04/03 07:46:10;;;;;;;11.33;4.13;;;20.80;71.50;;;;;;5063214;28;21075;-83
2021/04/03 07:48:53;;;;;;;10.27;4.70;;;20.70;69.90;;;;;;5061873;28;20505;-83
2021/04/03 07:51:50;;;;;;;7.80;4.73;;;20.80;68.60;;;;;;5059089;28;20442;-86
2021/04/03 07:54:37;;;;;;;9.53;4.50;;;20.40;69.30;;;;;;4986252;28;20436;-83
2021/04/03 07:57:10;;;;;;;12.60;4.60;;;20.30;70.00;;;;;;5055568;28;20515;-85
2021/04/03 08:00:02;;;;;;;13.63;4.13;;;20.70;68.60;;;;;;5108244;22;20545;-81
2021/04/03 08:02:30;;;;;;;9.70;4.63;;;20.50;68.80;;;;;;5058045;28;20491;-81
2021/04/03 08:04:57;;;;;;;13.30;4.30;;;20.90;68.70;;;;;;5081479;28;20446;-80
2021/04/03 08:07:25;;;;;;;10.23;4.20;;;21.40;67.10;;;;;;5056002;28;20934;-70
2021/04/03 08:09:52;;;;;;;8.70;3.67;;;21.50;65.70;;;;;;5041671;28;20508;-68
2021/04/03 08:12:24;;;;;;;10.13;5.80;;;21.80;66.00;;;;;;5030714;28;20466;-66
2021/04/03 08:14:54;;;;;;;10.33;3.87;;;22.00;63.60;;;;;;5033788;28;20462;-67
2021/04/03 08:17:22;;;;;;;13.43;4.10;;;21.70;63.60;;;;;;5023401;28;20474;-67
2021/04/03 08:19:48;;;;;;;9.30;4.43;;;22.00;64.30;;;;;;5026032;28;20466;-67
2021/04/03 08:22:15;;;;;;;7.10;3.83;;;21.80;61.80;;;;;;5029228;28;20445;-65
2021/04/03 08:24:56;;;;;;;6.77;4.23;;;21.60;62.00;;;;;;5029308;28;20459;-67
2021/04/03 08:27:32;;;;;;;8.63;4.83;;;22.00;62.70;;;;;;5034624;28;20508;-67
2021/04/03 08:29:59;;;;;;;8.20;3.30;;;21.60;62.10;;;;;;5032204;28;20478;-69
2021/04/03 08:32:26;;;;;;;11.10;4.23;;;21.80;62.60;;;;;;5027726;28;20457;-66
2021/04/03 08:34:52;;;;;;;9.93;3.70;;;22.50;61.40;;;;;;5029678;28;20451;-65
2021/04/03 08:37:21;;;;;;;7.47;4.00;;;22.60;59.90;;;;;;5025711;28;20802;-65
2021/04/03 08:39:47;;;;;;;6.70;3.17;;;22.60;58.90;;;;;;5030525;28;20524;-67
2021/04/03 08:42:14;;;;;;;7.07;3.20;;;22.70;58.70;;;;;;5029496;28;20763;-66
2021/04/03 08:44:44;;;;;;;7.47;3.87;;;22.90;57.70;;;;;;5027074;28;20450;-67
2021/04/03 08:47:17;;;;;;;6.13;3.33;;;23.00;57.40;;;;;;5032430;28;20442;-65
2021/04/03 08:49:44;;;;;;;6.90;3.80;;;23.10;57.70;;;;;;5029207;28;20471;-64
2021/04/03 08:52:12;;;;;;;7.00;3.53;;;23.50;56.80;;;;;;5032675;28;20493;-66
2021/04/03 08:54:40;;;;;;;12.13;5.43;;;22.80;55.90;;;;;;5027895;28;20451;-65
2021/04/03 08:57:20;;;;;;;8.50;4.73;;;23.50;56.80;;;;;;5029722;28;20455;-65
2021/04/03 08:59:48;;;;;;;5.83;3.23;;;23.70;56.10;;;;;;5022695;28;20466;-64
2021/04/03 09:02:15;;;;;;;6.20;3.70;;;23.70;55.40;;;;;;5032715;28;20486;-62
2021/04/03 09:04:42;;;;;;;9.33;3.93;;;23.40;55.50;;;;;;5030001;28;20443;-64
2021/04/03 09:07:09;;;;;;;7.77;3.40;;;23.50;55.60;;;;;;5033179;28;20451;-69
2021/04/03 09:09:38;;;;;;;6.17;3.83;;;23.50;54.50;;;;;;5034728;28;20442;-72
2021/04/03 09:12:06;;;;;;;5.90;3.37;;;22.90;55.30;;;;;;5031924;28;20451;-66
2021/04/03 09:14:35;;;;;;;9.30;4.30;;;22.70;55.20;;;;;;5021825;28;20451;-64
2021/04/03 09:17:04;;;;;;;8.60;3.97;;;22.60;57.20;;;;;;5029625;28;20459;-69
2021/04/03 09:19:33;;;;;;;9.30;3.97;;;22.70;56.10;;;;;;5031970;28;20552;-69
2021/04/03 09:22:00;;;;;;;7.10;4.23;;;23.00;55.50;;;;;;5024125;28;20200;-66
2021/04/03 09:24:37;;;;;;;11.60;6.20;;;23.10;55.90;;;;;;5022235;28;21003;-65
2021/04/03 09:27:15;;;;;;;8.20;4.17;;;22.40;56.40;;;;;;5030551;28;20447;-65
2021/04/03 09:29:56;;;;;;;6.13;3.70;;;22.20;56.30;;;;;;5036342;28;20435;-81
2021/04/03 09:40:06;;;;;;;9.03;4.67;;;21.50;58.20;;;;;;5021026;28;20458;-81
2021/04/03 09:46:27;;;;;;;10.87;4.00;;;20.80;59.50;;;;;;4998623;28;20450;-79
2021/04/03 09:49:26;;;;;;;6.83;3.57;;;20.20;60.90;;;;;;5019835;28;20447;-81
2021/04/03 09:52:23;;;;;;;7.70;3.70;;;20.00;63.30;;;;;;5026266;28;20436;-81
2021/04/03 09:58:07;;;;;;;4.57;3.27;;;19.20;59.50;;;;;;5032493;28;20797;-80
2021/04/03 10:00:38;;;;;;;3.50;2.30;;;19.40;57.40;;;;;;5040479;28;20474;-80
2021/04/03 10:10:35;;;;;;;4.27;1.83;;;20.70;54.20;;;;;;5030996;28;20962;-81
2021/04/03 10:13:29;;;;;;;3.70;1.90;;;20.30;54.20;;;;;;5034782;28;20464;-81
2021/04/03 10:19:39;;;;;;;3.83;1.43;;;20.40;51.20;;;;;;5005125;28;20445;-81
2021/04/03 10:22:41;;;;;;;3.80;1.50;;;20.40;51.80;;;;;;5027948;28;20439;-81
2021/04/03 10:35:10;;;;;;;3.73;1.57;;;19.50;54.30;;;;;;5040463;28;20493;-83
2021/04/03 10:37:37;;;;;;;2.60;1.43;;;18.70;55.70;;;;;;5033598;28;20445;-82
2021/04/03 10:40:06;;;;;;;2.60;1.57;;;18.20;55.70;;;;;;5028540;28;20998;-79
2021/04/03 10:42:32;;;;;;;10.40;2.90;;;17.50;57.00;;;;;;5034544;28;20485;-81
2021/04/03 10:44:59;;;;;;;9.27;2.28;;;17.60;57.50;;;;;;5040625;28;20473;-80
2021/04/03 10:47:27;;;;;;;4.47;2.10;;;17.60;57.80;;;;;;5037845;28;20647;-80
2021/04/03 10:49:56;;;;;;;4.70;1.90;;;17.70;59.00;;;;;;5037632;28;20453;-82
2021/04/03 10:52:24;;;;;;;5.80;2.67;;;17.70;59.30;;;;;;5040059;28;20461;-82
2021/04/03 10:54:51;;;;;;;5.67;2.40;;;17.70;60.00;;;;;;5039002;28;20446;-81
2021/04/03 10:57:23;;;;;;;6.32;2.95;;;17.90;59.10;;;;;;5040412;28;20443;-79
2021/04/03 10:59:49;;;;;;;7.32;2.67;;;17.70;58.70;;;;;;5030650;28;20223;-80
2021/04/03 11:02:17;;;;;;;5.70;2.60;;;17.00;59.50;;;;;;5031353;28;20222;-80
2021/04/03 11:04:43;;;;;;;9.23;2.50;;;16.60;59.80;;;;;;5038785;28;20219;-79
2021/04/03 11:07:10;;;;;;;4.07;2.45;;;16.30;60.30;;;;;;5041860;28;20212;-79
2021/04/03 11:09:38;;;;;;;7.00;3.28;;;16.40;60.50;;;;;;5034489;28;20283;-81
2021/04/03 11:12:06;;;;;;;4.72;1.65;;;16.40;60.00;;;;;;5041550;28;20330;-80
2021/04/03 11:14:33;;;;;;;5.22;2.35;;;16.60;61.10;;;;;;5036876;28;20225;-79
2021/04/03 11:16:59;;;;;;;6.95;2.53;;;16.60;59.90;;;;;;5033718;28;20184;-80
2021/04/03 11:19:26;;;;;;;4.07;1.80;;;16.40;59.90;;;;;;5043167;28;20211;-81
2021/04/03 11:21:53;;;;;;;5.40;1.92;;;16.40;60.50;;;;;;5044084;28;20283;-80
2021/04/03 11:24:20;;;;;;;7.03;2.58;;;16.60;60.30;;;;;;5037799;28;20225;-82
2021/04/03 11:26:47;;;;;;;6.03;1.80;;;16.70;58.40;;;;;;5051361;28;20212;-81
2021/04/03 11:29:14;;;;;;;3.53;1.70;;;16.30;58.00;;;;;;5041772;28;20209;-82
2021/04/03 11:31:40;;;;;;;5.70;1.85;;;16.40;58.70;;;;;;5031099;28;20225;-80
2021/04/03 11:34:07;;;;;;;7.90;2.40;;;16.60;59.00;;;;;;5037633;28;20229;-82
2021/04/03 11:36:33;;;;;;;4.55;2.05;;;16.70;58.30;;;;;;5049902;28;20209;-81
2021/04/03 11:39:00;;;;;;;12.65;2.50;;;16.70;58.50;;;;;;5037374;28;20610;-81
2021/04/03 11:41:28;;;;;;;3.58;1.90;;;16.90;58.00;;;;;;5047099;28;20235;-82
2021/04/03 11:43:56;;;;;;;7.80;2.58;;;16.90;57.70;;;;;;5045036;28;20750;-82
2021/04/03 11:46:23;;;;;;;8.35;2.95;;;17.10;58.10;;;;;;5046960;28;20206;-82
2021/04/03 11:48:49;;;;;;;5.70;2.38;;;17.30;56.60;;;;;;5044534;28;20220;-80
2021/04/03 11:51:16;;;;;;;5.93;2.20;;;17.40;56.60;;;;;;5044901;28;20223;-78
2021/04/03 11:53:43;;;;;;;5.20;1.83;;;17.00;56.10;;;;;;5045924;28;20202;-79
2021/04/03 11:56:10;;;;;;;6.65;2.63;;;16.70;56.60;;;;;;5028893;28;20217;-79
2021/04/03 11:58:36;;;;;;;5.17;2.43;;;16.70;57.10;;;;;;5040145;28;20218;-83
2021/04/03 12:01:04;;;;;;;9.30;2.30;;;16.90;57.70;;;;;;5038294;28;20481;-81
2021/04/03 12:03:31;;;;;;;5.30;2.83;;;16.50;57.30;;;;;;5041668;28;20292;-81
2021/04/03 12:05:57;;;;;;;6.63;3.30;;;16.00;58.60;;;;;;5047319;28;20211;-83
2021/04/03 12:08:24;;;;;;;7.82;2.90;;;16.00;60.40;;;;;;5051176;28;20224;-81
2021/04/03 12:10:51;;;;;;;9.65;3.15;;;16.00;60.10;;;;;;5045392;28;20231;-82
2021/04/03 12:13:17;;;;;;;6.25;2.65;;;16.30;60.70;;;;;;5058323;28;20206;-81
2021/04/03 12:16:12;;;;;;;6.72;2.88;;;16.50;60.30;;;;;;5053591;28;20202;-80
2021/04/03 12:18:40;;;;;;;8.95;3.40;;;16.80;60.80;;;;;;5053322;28;20187;-81
2021/04/03 12:21:06;;;;;;;5.35;2.72;;;16.90;59.10;;;;;;5059144;28;20235;-80
2021/04/03 12:23:33;;;;;;;6.53;2.47;;;16.80;59.00;;;;;;5056872;28;20209;-80
2021/04/03 12:26:01;;;;;;;5.00;2.78;;;16.60;58.40;;;;;;5049040;28;20261;-82
2021/04/03 12:28:34;;;;;;;5.95;3.17;;;16.60;59.10;;;;;;5047925;28;20189;-83
2021/04/03 12:31:03;;;;;;;7.57;2.70;;;16.60;59.70;;;;;;5054284;28;20289;-83
2021/04/03 12:33:30;;;;;;;9.55;3.45;;;16.40;59.60;;;;;;5039402;28;20277;-81
2021/04/03 12:35:57;;;;;;;6.78;2.55;;;16.30;60.90;;;;;;5049133;28;20285;-82
2021/04/03 12:38:24;;;;;;;5.82;2.95;;;16.40;61.20;;;;;;5050155;28;20202;-84
2021/04/03 12:40:51;;;;;;;6.80;2.67;;;16.40;60.90;;;;;;5049960;28;20239;-81
2021/04/03 12:43:18;;;;;;;7.28;2.75;;;16.30;60.30;;;;;;5044495;28;20221;-82
2021/04/03 12:45:44;;;;;;;6.88;2.45;;;16.00;58.20;;;;;;5044360;28;20212;-82
2021/04/03 12:48:12;;;;;;;7.82;2.63;;;15.90;60.00;;;;;;5027287;28;20339;-82
2021/04/03 12:50:39;;;;;;;6.30;3.20;;;15.80;60.10;;;;;;5028271;28;20344;-80
2021/04/03 12:53:07;;;;;;;5.18;2.60;;;15.90;61.50;;;;;;5042969;28;20204;-80
2021/04/03 12:55:34;;;;;;;5.95;2.50;;;16.00;61.10;;;;;;5043331;28;20196;-84
2021/04/03 12:58:01;;;;;;;8.63;2.70;;;16.00;60.70;;;;;;5055996;28;20267;-79
2021/04/03 13:00:28;;;;;;;6.38;2.60;;;16.20;61.80;;;;;;5043834;28;20228;-82
2021/04/03 13:02:55;;;;;;;6.70;3.20;;;16.10;58.90;;;;;;5052090;28;20230;-80
2021/04/03 13:05:21;;;;;;;11.00;3.10;;;16.00;60.10;;;;;;5042555;28;20189;-79
2021/04/03 13:07:48;;;;;;;6.95;3.33;;;16.10;60.50;;;;;;5040108;28;20195;-81
2021/04/03 13:10:18;;;;;;;7.43;3.33;;;15.80;59.60;;;;;;5045981;28;21463;-82
2021/04/03 13:12:45;;;;;;;11.73;3.75;;;15.70;61.60;;;;;;5057362;28;20233;-81
2021/04/03 13:15:12;;;;;;;16.50;3.70;;;15.70;63.40;;;;;;5045176;28;20251;-81
2021/04/03 13:17:39;;;;;;;7.22;2.67;;;15.70;63.30;;;;;;5042382;28;20675;-81
2021/04/03 13:20:06;;;;;;;9.45;3.67;;;15.30;59.40;;;;;;5041172;28;20254;-81
2021/04/03 13:22:33;;;;;;;6.90;3.35;;;15.20;60.80;;;;;;5038024;28;20200;-82
2021/04/03 13:25:00;;;;;;;8.18;3.58;;;15.00;62.90;;;;;;5031976;28;20204;-80
2021/04/03 13:27:28;;;;;;;12.15;3.80;;;15.00;64.10;;;;;;5038170;28;20212;-83
2021/04/03 13:29:55;;;;;;;5.90;2.85;;;14.90;64.00;;;;;;5036394;28;20222;-81